FDX444 KLBB-KAFW
Flight info
| Callsign | FDX444 |
|---|---|
| Flight time | 0h 41m |
| Altitude | 33000 |
| Route | HNKER WESAT2 |
| Aircraft | A310/H-SDFGHIM1RTUWXY/LB1 |
Departure
| Time | 2026-04-24 14:19 |
|---|---|
| Airport | Lubbock Preston Smith International Airport (KLBB) |
Arrival
| Time | 2026-04-24 15:01 |
|---|---|
| Airport | Perot Field/Fort Worth Alliance Airport (KAFW) |
| Time | Latitude | Longitude | Altitude | Speed | Heading |
|---|---|---|---|---|---|
| 2026-04-24 13:43 | 33.65794 | -101.82073 | 3264 ft | 0 kts | 178° |
| 2026-04-24 14:09 | 33.65797 | -101.82073 | 3264 ft | 2 kts | 183° |
| 2026-04-24 14:10 | 33.65811 | -101.82066 | 3264 ft | 2 kts | 226° |
| 2026-04-24 14:10 | 33.65818 | -101.82050 | 3264 ft | 2 kts | 263° |
| 2026-04-24 14:10 | 33.65818 | -101.82032 | 3264 ft | 2 kts | 269° |
| 2026-04-24 14:10 | 33.65818 | -101.82014 | 3264 ft | 2 kts | 268° |
| 2026-04-24 14:11 | 33.65818 | -101.82005 | 3264 ft | 0 kts | 268° |
| 2026-04-24 14:12 | 33.65818 | -101.82006 | 3264 ft | 0 kts | 268° |
| 2026-04-24 14:12 | 33.65818 | -101.82011 | 3264 ft | 0 kts | 268° |
| 2026-04-24 14:12 | 33.65818 | -101.82014 | 3264 ft | 0 kts | 268° |
| 2026-04-24 14:12 | 33.65818 | -101.82028 | 3264 ft | 2 kts | 267° |
| 2026-04-24 14:13 | 33.65816 | -101.82066 | 3264 ft | 5 kts | 265° |
| 2026-04-24 14:13 | 33.65810 | -101.82127 | 3264 ft | 8 kts | 263° |
| 2026-04-24 14:13 | 33.65803 | -101.82200 | 3263 ft | 8 kts | 258° |
| 2026-04-24 14:13 | 33.65779 | -101.82272 | 3262 ft | 9 kts | 240° |
| 2026-04-24 14:14 | 33.65741 | -101.82342 | 3261 ft | 9 kts | 228° |
| 2026-04-24 14:14 | 33.65679 | -101.82396 | 3260 ft | 13 kts | 206° |
| 2026-04-24 14:14 | 33.65675 | -101.82398 | 3260 ft | 0 kts | 206° |
| 2026-04-24 14:15 | 33.65683 | -101.82393 | 3260 ft | 1 kts | 231° |
| 2026-04-24 14:15 | 33.65687 | -101.82390 | 3260 ft | 3 kts | 289° |
| 2026-04-24 14:15 | 33.65734 | -101.82474 | 3259 ft | 22 kts | 300° |
| 2026-04-24 14:15 | 33.65772 | -101.82644 | 3258 ft | 16 kts | 257° |
| 2026-04-24 14:16 | 33.65646 | -101.82693 | 3257 ft | 24 kts | 174° |
| 2026-04-24 14:16 | 33.65449 | -101.82687 | 3254 ft | 29 kts | 179° |
| 2026-04-24 14:16 | 33.65259 | -101.82687 | 3254 ft | 23 kts | 180° |
| 2026-04-24 14:17 | 33.65091 | -101.82806 | 3250 ft | 15 kts | 268° |
| 2026-04-24 14:17 | 33.65168 | -101.82877 | 3250 ft | 14 kts | 349° |
| 2026-04-24 14:17 | 33.65203 | -101.82880 | 3250 ft | 7 kts | 359° |
| 2026-04-24 14:18 | 33.65232 | -101.82880 | 3250 ft | 0 kts | 358° |
| 2026-04-24 14:18 | 33.65236 | -101.82881 | 3250 ft | 3 kts | 358° |
| 2026-04-24 14:18 | 33.65506 | -101.82885 | 3254 ft | 86 kts | 360° |
| 2026-04-24 14:19 | 33.66415 | -101.82890 | 3316 ft | 174 kts | 0° |
| 2026-04-24 14:19 | 33.67726 | -101.82876 | 4275 ft | 202 kts | 0° |
| 2026-04-24 14:19 | 33.69122 | -101.82800 | 5341 ft | 213 kts | 4° |
| 2026-04-24 14:19 | 33.70576 | -101.82234 | 6142 ft | 241 kts | 38° |
| 2026-04-24 14:20 | 33.71795 | -101.80687 | 6658 ft | 271 kts | 48° |
| 2026-04-24 14:20 | 33.73079 | -101.78970 | 6655 ft | 274 kts | 49° |
| 2026-04-24 14:20 | 33.73931 | -101.76952 | 6793 ft | 281 kts | 81° |
| 2026-04-24 14:20 | 33.73886 | -101.74567 | 7830 ft | 291 kts | 91° |
| 2026-04-24 14:21 | 33.73954 | -101.72201 | 9308 ft | 290 kts | 86° |
| 2026-04-24 14:21 | 33.74087 | -101.69833 | 10642 ft | 293 kts | 86° |
| 2026-04-24 14:21 | 33.74210 | -101.67345 | 11547 ft | 311 kts | 86° |
| 2026-04-24 14:21 | 33.74320 | -101.64675 | 12342 ft | 332 kts | 87° |
| 2026-04-24 14:22 | 33.74422 | -101.61822 | 13108 ft | 356 kts | 87° |
| 2026-04-24 14:22 | 33.74520 | -101.58789 | 14046 ft | 374 kts | 88° |
| 2026-04-24 14:22 | 33.74714 | -101.52437 | 16586 ft | 388 kts | 88° |
| 2026-04-24 14:23 | 33.74810 | -101.49238 | 17844 ft | 393 kts | 88° |
| 2026-04-24 14:23 | 33.74908 | -101.45926 | 18993 ft | 400 kts | 88° |
| 2026-04-24 14:23 | 33.75006 | -101.42600 | 20084 ft | 407 kts | 88° |
| 2026-04-24 14:23 | 33.75106 | -101.39182 | 21156 ft | 413 kts | 88° |
| 2026-04-24 14:24 | 33.75206 | -101.35722 | 22171 ft | 420 kts | 88° |
| 2026-04-24 14:24 | 33.75307 | -101.32184 | 23184 ft | 427 kts | 88° |
| 2026-04-24 14:24 | 33.75409 | -101.28580 | 24210 ft | 434 kts | 88° |
| 2026-04-24 14:24 | 33.75511 | -101.24947 | 25196 ft | 439 kts | 88° |
| 2026-04-24 14:25 | 33.75613 | -101.21255 | 26137 ft | 446 kts | 88° |
| 2026-04-24 14:25 | 33.75715 | -101.17564 | 27049 ft | 453 kts | 88° |
| 2026-04-24 14:25 | 33.75818 | -101.13742 | 27985 ft | 460 kts | 88° |
| 2026-04-24 14:25 | 33.75921 | -101.09925 | 28907 ft | 465 kts | 88° |
| 2026-04-24 14:26 | 33.76024 | -101.06014 | 29911 ft | 468 kts | 88° |
| 2026-04-24 14:26 | 33.76126 | -101.02178 | 31011 ft | 463 kts | 88° |
| 2026-04-24 14:26 | 33.76227 | -100.98352 | 31971 ft | 460 kts | 88° |
| 2026-04-24 14:26 | 33.76327 | -100.94494 | 32559 ft | 461 kts | 88° |
| 2026-04-24 14:27 | 33.76423 | -100.90665 | 32897 ft | 459 kts | 88° |
| 2026-04-24 14:27 | 33.76519 | -100.86822 | 33006 ft | 458 kts | 88° |
| 2026-04-24 14:27 | 33.76612 | -100.83021 | 32994 ft | 455 kts | 88° |
| 2026-04-24 14:28 | 33.76795 | -100.75487 | 33000 ft | 450 kts | 88° |
| 2026-04-24 14:28 | 33.76971 | -100.68006 | 32998 ft | 449 kts | 88° |
| 2026-04-24 14:29 | 33.77143 | -100.60538 | 32997 ft | 450 kts | 88° |
| 2026-04-24 14:29 | 33.77312 | -100.52995 | 32998 ft | 450 kts | 88° |
| 2026-04-24 14:30 | 33.77448 | -100.46754 | 33000 ft | 450 kts | 88° |
| 2026-04-24 14:30 | 33.77633 | -100.38014 | 33000 ft | 450 kts | 88° |
| 2026-04-24 14:31 | 33.78025 | -100.30541 | 33003 ft | 450 kts | 84° |
| 2026-04-24 14:31 | 33.78764 | -100.23051 | 32999 ft | 450 kts | 83° |
| 2026-04-24 14:32 | 33.79495 | -100.15567 | 32998 ft | 450 kts | 83° |
| 2026-04-24 14:32 | 33.80212 | -100.08145 | 32997 ft | 450 kts | 83° |
| 2026-04-24 14:33 | 33.80931 | -100.00659 | 32998 ft | 450 kts | 83° |
| 2026-04-24 14:33 | 33.81644 | -99.93185 | 32999 ft | 450 kts | 83° |
| 2026-04-24 14:34 | 33.82348 | -99.85764 | 33001 ft | 450 kts | 83° |
| 2026-04-24 14:34 | 33.83049 | -99.78316 | 33002 ft | 450 kts | 83° |
| 2026-04-24 14:35 | 33.83748 | -99.70844 | 33002 ft | 450 kts | 83° |
| 2026-04-24 14:35 | 33.84445 | -99.63345 | 33002 ft | 450 kts | 83° |
| 2026-04-24 14:36 | 33.85038 | -99.55860 | 32826 ft | 445 kts | 91° |
| 2026-04-24 14:36 | 33.84435 | -99.52286 | 32648 ft | 435 kts | 110° |
| 2026-04-24 14:36 | 33.83231 | -99.49018 | 32361 ft | 429 kts | 115° |
| 2026-04-24 14:36 | 33.81976 | -99.45747 | 31881 ft | 429 kts | 113° |
| 2026-04-24 14:37 | 33.80851 | -99.42464 | 31402 ft | 427 kts | 111° |
| 2026-04-24 14:37 | 33.79810 | -99.39151 | 30959 ft | 425 kts | 110° |
| 2026-04-24 14:37 | 33.78778 | -99.35822 | 30550 ft | 423 kts | 110° |
| 2026-04-24 14:37 | 33.77743 | -99.32507 | 30157 ft | 419 kts | 111° |
| 2026-04-24 14:38 | 33.76729 | -99.29281 | 29770 ft | 416 kts | 111° |
| 2026-04-24 14:38 | 33.75706 | -99.26029 | 29368 ft | 413 kts | 111° |
| 2026-04-24 14:38 | 33.74700 | -99.22836 | 28964 ft | 411 kts | 111° |
| 2026-04-24 14:38 | 33.73682 | -99.19611 | 28552 ft | 408 kts | 111° |
| 2026-04-24 14:39 | 33.72687 | -99.16457 | 28150 ft | 406 kts | 111° |
| 2026-04-24 14:39 | 33.71689 | -99.13300 | 27746 ft | 403 kts | 111° |
| 2026-04-24 14:39 | 33.70690 | -99.10143 | 27342 ft | 401 kts | 111° |
| 2026-04-24 14:39 | 33.69706 | -99.07037 | 26943 ft | 398 kts | 111° |
| 2026-04-24 14:40 | 33.68737 | -99.03979 | 26548 ft | 396 kts | 111° |
| 2026-04-24 14:40 | 33.67752 | -99.00874 | 26147 ft | 393 kts | 111° |
| 2026-04-24 14:40 | 33.66783 | -98.97827 | 25761 ft | 390 kts | 111° |
| 2026-04-24 14:40 | 33.65828 | -98.94823 | 25346 ft | 389 kts | 111° |
| 2026-04-24 14:41 | 33.64869 | -98.91808 | 24941 ft | 386 kts | 111° |
| 2026-04-24 14:41 | 33.63916 | -98.88816 | 24549 ft | 384 kts | 111° |
| 2026-04-24 14:41 | 33.62959 | -98.85819 | 24156 ft | 381 kts | 111° |
| 2026-04-24 14:41 | 33.62026 | -98.82885 | 23769 ft | 379 kts | 110° |
| 2026-04-24 14:42 | 33.61102 | -98.79945 | 23376 ft | 376 kts | 110° |
| 2026-04-24 14:42 | 33.60183 | -98.77000 | 23126 ft | 370 kts | 110° |
| 2026-04-24 14:42 | 33.59296 | -98.74152 | 23081 ft | 366 kts | 110° |
| 2026-04-24 14:42 | 33.58396 | -98.71259 | 23060 ft | 372 kts | 110° |
| 2026-04-24 14:43 | 33.57496 | -98.68375 | 23041 ft | 374 kts | 110° |
| 2026-04-24 14:43 | 33.56570 | -98.65440 | 23019 ft | 374 kts | 111° |
| 2026-04-24 14:43 | 33.55629 | -98.62505 | 22993 ft | 375 kts | 111° |
| 2026-04-24 14:43 | 33.54697 | -98.59606 | 22759 ft | 375 kts | 111° |
| 2026-04-24 14:44 | 33.53753 | -98.56670 | 22268 ft | 376 kts | 111° |
| 2026-04-24 14:44 | 33.52817 | -98.53760 | 21689 ft | 379 kts | 111° |
| 2026-04-24 14:44 | 33.51868 | -98.50813 | 21119 ft | 381 kts | 111° |
| 2026-04-24 14:44 | 33.50918 | -98.47863 | 20600 ft | 381 kts | 111° |
| 2026-04-24 14:45 | 33.49960 | -98.44892 | 20070 ft | 382 kts | 111° |
| 2026-04-24 14:45 | 33.49006 | -98.41933 | 19575 ft | 381 kts | 111° |
| 2026-04-24 14:45 | 33.48064 | -98.39017 | 19182 ft | 377 kts | 111° |
| 2026-04-24 14:45 | 33.47126 | -98.36114 | 18791 ft | 373 kts | 111° |
| 2026-04-24 14:46 | 33.46194 | -98.33234 | 18309 ft | 364 kts | 111° |
| 2026-04-24 14:46 | 33.45288 | -98.30434 | 17565 ft | 356 kts | 111° |
| 2026-04-24 14:46 | 33.44402 | -98.27702 | 16777 ft | 348 kts | 111° |
| 2026-04-24 14:46 | 33.43546 | -98.25064 | 16241 ft | 337 kts | 111° |
| 2026-04-24 14:47 | 33.42706 | -98.22476 | 15912 ft | 335 kts | 111° |
| 2026-04-24 14:47 | 33.41859 | -98.19873 | 15535 ft | 333 kts | 111° |
| 2026-04-24 14:47 | 33.41024 | -98.17305 | 15131 ft | 332 kts | 111° |
| 2026-04-24 14:47 | 33.40188 | -98.14740 | 14739 ft | 331 kts | 111° |
| 2026-04-24 14:48 | 33.39368 | -98.12222 | 14358 ft | 328 kts | 111° |
| 2026-04-24 14:48 | 33.38544 | -98.09695 | 13973 ft | 327 kts | 111° |
| 2026-04-24 14:48 | 33.37711 | -98.07142 | 13580 ft | 324 kts | 111° |
| 2026-04-24 14:48 | 33.36901 | -98.04664 | 13159 ft | 323 kts | 111° |
| 2026-04-24 14:49 | 33.36084 | -98.02165 | 12745 ft | 321 kts | 111° |
| 2026-04-24 14:49 | 33.35273 | -97.99684 | 12333 ft | 316 kts | 111° |
| 2026-04-24 14:49 | 33.34491 | -97.97297 | 11939 ft | 302 kts | 111° |
| 2026-04-24 14:49 | 33.33735 | -97.94988 | 11563 ft | 297 kts | 111° |
| 2026-04-24 14:50 | 33.32991 | -97.92723 | 11220 ft | 294 kts | 111° |
| 2026-04-24 14:50 | 33.32242 | -97.90465 | 10844 ft | 292 kts | 111° |
| 2026-04-24 14:50 | 33.31497 | -97.88212 | 10485 ft | 290 kts | 111° |
| 2026-04-24 14:50 | 33.30759 | -97.85968 | 10103 ft | 289 kts | 111° |
| 2026-04-24 14:51 | 33.30034 | -97.83757 | 9740 ft | 288 kts | 111° |
| 2026-04-24 14:51 | 33.29306 | -97.81535 | 9381 ft | 286 kts | 111° |
| 2026-04-24 14:51 | 33.28583 | -97.79324 | 9029 ft | 285 kts | 111° |
| 2026-04-24 14:51 | 33.27860 | -97.77116 | 8677 ft | 283 kts | 111° |
| 2026-04-24 14:52 | 33.27142 | -97.74931 | 8407 ft | 284 kts | 112° |
| 2026-04-24 14:52 | 33.26128 | -97.72961 | 8321 ft | 281 kts | 129° |
| 2026-04-24 14:52 | 33.24795 | -97.71235 | 8085 ft | 283 kts | 135° |
| 2026-04-24 14:52 | 33.23393 | -97.69598 | 7679 ft | 285 kts | 136° |
| 2026-04-24 14:53 | 33.22264 | -97.67701 | 7173 ft | 278 kts | 109° |
| 2026-04-24 14:53 | 33.21874 | -97.65498 | 6940 ft | 271 kts | 97° |
| 2026-04-24 14:53 | 33.21669 | -97.63231 | 6688 ft | 273 kts | 95° |
| 2026-04-24 14:53 | 33.21476 | -97.60970 | 6446 ft | 276 kts | 96° |
| 2026-04-24 14:54 | 33.21263 | -97.58683 | 6212 ft | 276 kts | 96° |
| 2026-04-24 14:54 | 33.21038 | -97.56435 | 5957 ft | 271 kts | 97° |
| 2026-04-24 14:54 | 33.20808 | -97.54230 | 5703 ft | 266 kts | 97° |
| 2026-04-24 14:54 | 33.20575 | -97.52036 | 5446 ft | 262 kts | 97° |
| 2026-04-24 14:55 | 33.20422 | -97.50610 | 5276 ft | 259 kts | 97° |
| 2026-04-24 14:55 | 33.20115 | -97.47784 | 4934 ft | 253 kts | 97° |
| 2026-04-24 14:55 | 33.19891 | -97.45716 | 4681 ft | 249 kts | 97° |
| 2026-04-24 14:55 | 33.19669 | -97.43690 | 4439 ft | 245 kts | 97° |
| 2026-04-24 14:56 | 33.19450 | -97.41688 | 4348 ft | 233 kts | 97° |
| 2026-04-24 14:56 | 33.19247 | -97.39835 | 4287 ft | 222 kts | 97° |
| 2026-04-24 14:56 | 33.19047 | -97.38027 | 4248 ft | 217 kts | 98° |
| 2026-04-24 14:56 | 33.18389 | -97.36455 | 4233 ft | 214 kts | 140° |
| 2026-04-24 14:57 | 33.17054 | -97.35682 | 4207 ft | 220 kts | 162° |
| 2026-04-24 14:57 | 33.15525 | -97.35229 | 3839 ft | 225 kts | 168° |
| 2026-04-24 14:57 | 33.14050 | -97.34911 | 3537 ft | 213 kts | 171° |
| 2026-04-24 14:57 | 33.12572 | -97.34615 | 3251 ft | 213 kts | 171° |
| 2026-04-24 14:58 | 33.11116 | -97.34322 | 2901 ft | 211 kts | 171° |
| 2026-04-24 14:58 | 33.09690 | -97.34030 | 2586 ft | 209 kts | 170° |
| 2026-04-24 14:58 | 33.08265 | -97.33738 | 2285 ft | 208 kts | 170° |
| 2026-04-24 14:58 | 33.06884 | -97.33453 | 2032 ft | 187 kts | 170° |
| 2026-04-24 14:59 | 33.05675 | -97.33205 | 1758 ft | 176 kts | 170° |
| 2026-04-24 14:59 | 33.04516 | -97.32967 | 1514 ft | 162 kts | 170° |
| 2026-04-24 14:59 | 33.03465 | -97.32752 | 1284 ft | 144 kts | 170° |
| 2026-04-24 14:59 | 33.02517 | -97.32558 | 1119 ft | 138 kts | 171° |
| 2026-04-24 15:00 | 33.01579 | -97.32369 | 931 ft | 135 kts | 171° |
| 2026-04-24 15:00 | 33.00652 | -97.32181 | 737 ft | 132 kts | 170° |
| 2026-04-24 15:00 | 32.99807 | -97.32002 | 719 ft | 106 kts | 170° |
| 2026-04-24 15:00 | 32.99152 | -97.31866 | 709 ft | 85 kts | 168° |
| 2026-04-24 15:01 | 32.98796 | -97.31793 | 704 ft | 26 kts | 169° |
| 2026-04-24 15:01 | 32.98617 | -97.31757 | 700 ft | 45 kts | 173° |
| 2026-04-24 15:01 | 32.98314 | -97.31702 | 692 ft | 34 kts | 170° |
| 2026-04-24 15:01 | 32.98240 | -97.31685 | 690 ft | 6 kts | 169° |
| 2026-04-24 15:02 | 32.98239 | -97.31684 | 690 ft | 0 kts | 167° |
| 2026-04-24 15:02 | 32.98235 | -97.31683 | 690 ft | 4 kts | 167° |
| 2026-04-24 15:02 | 32.98214 | -97.31677 | 690 ft | 13 kts | 169° |
| 2026-04-24 15:03 | 32.98128 | -97.31690 | 687 ft | 23 kts | 225° |
| 2026-04-24 15:03 | 32.98086 | -97.31853 | 687 ft | 15 kts | 258° |
| 2026-04-24 15:03 | 32.98080 | -97.31915 | 687 ft | 17 kts | 257° |
| 2026-04-24 15:03 | 32.98017 | -97.31970 | 686 ft | 6 kts | 180° |
| 2026-04-24 15:04 | 32.97940 | -97.31945 | 683 ft | 12 kts | 159° |
| 2026-04-24 15:04 | 32.97861 | -97.31963 | 680 ft | 10 kts | 248° |
| 2026-04-24 15:04 | 32.97855 | -97.31989 | 680 ft | 0 kts | 262° |